sensor_id;sensor_type;location;lat;lon;timestamp;P1;durP1;ratioP1;P2;durP2;ratioP2
1935;SDS011;969;49.892;10.896;2023-08-21T00:00:02;10.07;;;9.27;;
1935;SDS011;969;49.892;10.896;2023-08-21T00:02:31;10.83;;;9.73;;
1935;SDS011;969;49.892;10.896;2023-08-21T00:04:57;9.93;;;9.00;;
1935;SDS011;969;49.892;10.896;2023-08-21T00:07:23;9.97;;;9.17;;
1935;SDS011;969;49.892;10.896;2023-08-21T00:09:48;9.90;;;9.10;;
1935;SDS011;969;49.892;10.896;2023-08-21T00:12:15;11.70;;;9.60;;
1935;SDS011;969;49.892;10.896;2023-08-21T00:14:41;9.90;;;9.10;;
1935;SDS011;969;49.892;10.896;2023-08-21T00:17:06;9.47;;;8.60;;
1935;SDS011;969;49.892;10.896;2023-08-21T00:19:33;10.03;;;8.97;;
1935;SDS011;969;49.892;10.896;2023-08-21T00:21:59;10.77;;;9.87;;
1935;SDS011;969;49.892;10.896;2023-08-21T00:24:25;10.93;;;9.97;;
1935;SDS011;969;49.892;10.896;2023-08-21T00:26:50;10.20;;;9.30;;
1935;SDS011;969;49.892;10.896;2023-08-21T00:29:16;10.37;;;9.57;;
1935;SDS011;969;49.892;10.896;2023-08-21T00:31:41;10.60;;;9.80;;
1935;SDS011;969;49.892;10.896;2023-08-21T00:34:07;10.73;;;9.80;;
1935;SDS011;969;49.892;10.896;2023-08-21T00:36:33;10.43;;;9.47;;
1935;SDS011;969;49.892;10.896;2023-08-21T00:38:58;10.53;;;9.63;;
1935;SDS011;969;49.892;10.896;2023-08-21T00:41:24;9.07;;;8.37;;
1935;SDS011;969;49.892;10.896;2023-08-21T00:43:49;10.03;;;9.13;;
1935;SDS011;969;49.892;10.896;2023-08-21T00:46:15;10.93;;;10.00;;
1935;SDS011;969;49.892;10.896;2023-08-21T00:48:42;10.63;;;9.73;;
1935;SDS011;969;49.892;10.896;2023-08-21T00:51:08;10.00;;;9.20;;
1935;SDS011;969;49.892;10.896;2023-08-21T00:53:34;10.30;;;9.40;;
1935;SDS011;969;49.892;10.896;2023-08-21T00:56:00;10.27;;;9.47;;
1935;SDS011;969;49.892;10.896;2023-08-21T00:58:25;9.90;;;9.07;;
1935;SDS011;969;49.892;10.896;2023-08-21T01:00:51;10.93;;;10.07;;
1935;SDS011;969;49.892;10.896;2023-08-21T01:03:17;9.87;;;8.97;;
1935;SDS011;969;49.892;10.896;2023-08-21T01:05:43;9.57;;;8.80;;
1935;SDS011;969;49.892;10.896;2023-08-21T01:08:21;9.80;;;9.00;;
1935;SDS011;969;49.892;10.896;2023-08-21T01:11:18;9.40;;;8.60;;
1935;SDS011;969;49.892;10.896;2023-08-21T01:16:33;9.03;;;8.33;;
1935;SDS011;969;49.892;10.896;2023-08-21T01:19:00;9.87;;;9.07;;
1935;SDS011;969;49.892;10.896;2023-08-21T01:21:28;9.03;;;8.33;;
1935;SDS011;969;49.892;10.896;2023-08-21T01:23:55;9.33;;;8.53;;
1935;SDS011;969;49.892;10.896;2023-08-21T01:26:20;10.10;;;9.30;;
1935;SDS011;969;49.892;10.896;2023-08-21T01:28:46;9.87;;;9.07;;
1935;SDS011;969;49.892;10.896;2023-08-21T01:31:14;9.23;;;8.53;;
1935;SDS011;969;49.892;10.896;2023-08-21T01:33:47;9.47;;;8.63;;
1935;SDS011;969;49.892;10.896;2023-08-21T01:36:16;9.17;;;8.37;;
1935;SDS011;969;49.892;10.896;2023-08-21T01:38:43;9.77;;;8.97;;
1935;SDS011;969;49.892;10.896;2023-08-21T01:41:09;9.37;;;8.47;;
1935;SDS011;969;49.892;10.896;2023-08-21T01:43:35;10.37;;;9.47;;
1935;SDS011;969;49.892;10.896;2023-08-21T01:46:01;10.03;;;9.13;;
1935;SDS011;969;49.892;10.896;2023-08-21T01:48:27;10.10;;;9.20;;
1935;SDS011;969;49.892;10.896;2023-08-21T01:50:53;9.10;;;8.40;;
1935;SDS011;969;49.892;10.896;2023-08-21T01:53:18;9.43;;;8.63;;
1935;SDS011;969;49.892;10.896;2023-08-21T01:55:44;10.70;;;9.83;;
1935;SDS011;969;49.892;10.896;2023-08-21T01:58:10;8.80;;;8.20;;
1935;SDS011;969;49.892;10.896;2023-08-21T02:00:35;10.13;;;9.23;;
1935;SDS011;969;49.892;10.896;2023-08-21T02:03:01;9.17;;;8.17;;
1935;SDS011;969;49.892;10.896;2023-08-21T02:05:26;10.00;;;9.13;;
1935;SDS011;969;49.892;10.896;2023-08-21T02:07:52;8.93;;;8.23;;
1935;SDS011;969;49.892;10.896;2023-08-21T02:10:18;9.40;;;8.60;;
1935;SDS011;969;49.892;10.896;2023-08-21T02:12:43;8.90;;;8.20;;
1935;SDS011;969;49.892;10.896;2023-08-21T02:15:09;9.90;;;8.90;;
1935;SDS011;969;49.892;10.896;2023-08-21T02:17:35;9.10;;;8.30;;
1935;SDS011;969;49.892;10.896;2023-08-21T02:20:01;8.67;;;7.97;;
1935;SDS011;969;49.892;10.896;2023-08-21T02:22:26;9.47;;;8.67;;
1935;SDS011;969;49.892;10.896;2023-08-21T02:24:52;9.27;;;8.47;;
1935;SDS011;969;49.892;10.896;2023-08-21T02:27:18;8.33;;;7.63;;
1935;SDS011;969;49.892;10.896;2023-08-21T02:29:44;9.80;;;9.00;;
1935;SDS011;969;49.892;10.896;2023-08-21T02:32:09;10.40;;;9.50;;
1935;SDS011;969;49.892;10.896;2023-08-21T02:34:35;9.53;;;8.73;;
1935;SDS011;969;49.892;10.896;2023-08-21T02:37:01;8.30;;;7.70;;
1935;SDS011;969;49.892;10.896;2023-08-21T02:39:28;9.10;;;8.40;;
1935;SDS011;969;49.892;10.896;2023-08-21T02:41:53;9.23;;;8.43;;
1935;SDS011;969;49.892;10.896;2023-08-21T02:44:19;9.47;;;8.67;;
1935;SDS011;969;49.892;10.896;2023-08-21T02:46:45;8.23;;;7.60;;
1935;SDS011;969;49.892;10.896;2023-08-21T02:49:10;8.80;;;8.10;;
1935;SDS011;969;49.892;10.896;2023-08-21T02:51:36;8.53;;;7.80;;
1935;SDS011;969;49.892;10.896;2023-08-21T02:54:01;9.03;;;8.33;;
1935;SDS011;969;49.892;10.896;2023-08-21T02:56:27;9.00;;;8.10;;
1935;SDS011;969;49.892;10.896;2023-08-21T02:58:53;9.10;;;8.30;;
1935;SDS011;969;49.892;10.896;2023-08-21T03:01:18;9.20;;;8.43;;
1935;SDS011;969;49.892;10.896;2023-08-21T03:03:44;9.90;;;8.93;;
1935;SDS011;969;49.892;10.896;2023-08-21T03:06:09;9.00;;;8.30;;
1935;SDS011;969;49.892;10.896;2023-08-21T03:08:35;8.77;;;8.07;;
1935;SDS011;969;49.892;10.896;2023-08-21T03:11:01;8.97;;;8.27;;
1935;SDS011;969;49.892;10.896;2023-08-21T03:13:26;9.50;;;8.60;;
1935;SDS011;969;49.892;10.896;2023-08-21T03:15:52;9.47;;;8.63;;
1935;SDS011;969;49.892;10.896;2023-08-21T03:18:17;9.03;;;8.33;;
1935;SDS011;969;49.892;10.896;2023-08-21T03:20:44;9.40;;;8.50;;
1935;SDS011;969;49.892;10.896;2023-08-21T03:23:10;8.27;;;7.57;;
1935;SDS011;969;49.892;10.896;2023-08-21T03:25:37;9.20;;;8.50;;
1935;SDS011;969;49.892;10.896;2023-08-21T03:28:02;9.00;;;8.20;;
1935;SDS011;969;49.892;10.896;2023-08-21T03:30:28;9.27;;;8.47;;
1935;SDS011;969;49.892;10.896;2023-08-21T03:32:54;9.00;;;8.30;;
1935;SDS011;969;49.892;10.896;2023-08-21T03:35:19;9.13;;;8.33;;
1935;SDS011;969;49.892;10.896;2023-08-21T03:37:45;8.73;;;8.03;;
1935;SDS011;969;49.892;10.896;2023-08-21T03:40:10;8.27;;;7.57;;
1935;SDS011;969;49.892;10.896;2023-08-21T03:42:36;9.33;;;8.60;;
1935;SDS011;969;49.892;10.896;2023-08-21T03:45:02;9.57;;;8.67;;
1935;SDS011;969;49.892;10.896;2023-08-21T03:47:29;9.10;;;8.30;;
1935;SDS011;969;49.892;10.896;2023-08-21T03:49:55;8.33;;;7.63;;
1935;SDS011;969;49.892;10.896;2023-08-21T03:52:21;9.43;;;8.63;;
1935;SDS011;969;49.892;10.896;2023-08-21T03:54:47;8.87;;;8.17;;
1935;SDS011;969;49.892;10.896;2023-08-21T03:57:12;8.60;;;7.90;;
1935;SDS011;969;49.892;10.896;2023-08-21T03:59:38;8.63;;;7.93;;
1935;SDS011;969;49.892;10.896;2023-08-21T04:02:03;9.00;;;8.20;;
1935;SDS011;969;49.892;10.896;2023-08-21T04:04:29;9.13;;;8.33;;
1935;SDS011;969;49.892;10.896;2023-08-21T04:06:55;9.17;;;8.43;;
1935;SDS011;969;49.892;10.896;2023-08-21T04:09:20;8.07;;;7.37;;
1935;SDS011;969;49.892;10.896;2023-08-21T04:11:46;9.07;;;8.33;;
1935;SDS011;969;49.892;10.896;2023-08-21T04:14:12;9.83;;;8.83;;
1935;SDS011;969;49.892;10.896;2023-08-21T04:16:37;9.00;;;8.20;;
1935;SDS011;969;49.892;10.896;2023-08-21T04:19:03;8.47;;;7.67;;
1935;SDS011;969;49.892;10.896;2023-08-21T04:21:30;8.63;;;7.70;;
1935;SDS011;969;49.892;10.896;2023-08-21T04:23:55;9.50;;;8.70;;
1935;SDS011;969;49.892;10.896;2023-08-21T04:26:21;9.27;;;8.57;;
1935;SDS011;969;49.892;10.896;2023-08-21T04:28:47;9.67;;;8.87;;
1935;SDS011;969;49.892;10.896;2023-08-21T04:31:12;8.57;;;7.87;;
1935;SDS011;969;49.892;10.896;2023-08-21T04:33:38;8.90;;;8.20;;
1935;SDS011;969;49.892;10.896;2023-08-21T04:36:04;9.07;;;8.27;;
1935;SDS011;969;49.892;10.896;2023-08-21T04:38:30;8.77;;;8.07;;
1935;SDS011;969;49.892;10.896;2023-08-21T04:40:55;8.50;;;7.80;;
1935;SDS011;969;49.892;10.896;2023-08-21T04:43:21;9.53;;;8.67;;
1935;SDS011;969;49.892;10.896;2023-08-21T04:45:50;8.67;;;7.97;;
1935;SDS011;969;49.892;10.896;2023-08-21T04:48:18;8.20;;;7.60;;
1935;SDS011;969;49.892;10.896;2023-08-21T04:50:44;8.33;;;7.73;;
1935;SDS011;969;49.892;10.896;2023-08-21T04:53:10;9.23;;;8.33;;
1935;SDS011;969;49.892;10.896;2023-08-21T04:55:36;8.83;;;8.00;;
1935;SDS011;969;49.892;10.896;2023-08-21T04:58:02;8.63;;;7.93;;
1935;SDS011;969;49.892;10.896;2023-08-21T05:00:28;7.87;;;7.27;;
1935;SDS011;969;49.892;10.896;2023-08-21T05:02:54;8.07;;;7.47;;
1935;SDS011;969;49.892;10.896;2023-08-21T05:05:19;9.07;;;8.37;;
1935;SDS011;969;49.892;10.896;2023-08-21T05:07:45;7.43;;;6.83;;
1935;SDS011;969;49.892;10.896;2023-08-21T05:10:11;8.47;;;7.67;;
1935;SDS011;969;49.892;10.896;2023-08-21T05:12:36;9.03;;;8.33;;
1935;SDS011;969;49.892;10.896;2023-08-21T05:15:02;8.57;;;7.77;;
1935;SDS011;969;49.892;10.896;2023-08-21T05:17:28;7.53;;;6.93;;
1935;SDS011;969;49.892;10.896;2023-08-21T05:19:54;8.07;;;7.37;;
1935;SDS011;969;49.892;10.896;2023-08-21T05:22:20;9.57;;;8.80;;
1935;SDS011;969;49.892;10.896;2023-08-21T05:24:46;8.50;;;7.80;;
1935;SDS011;969;49.892;10.896;2023-08-21T05:27:11;8.43;;;7.77;;
1935;SDS011;969;49.892;10.896;2023-08-21T05:29:37;7.97;;;7.37;;
1935;SDS011;969;49.892;10.896;2023-08-21T05:32:02;8.90;;;8.17;;
1935;SDS011;969;49.892;10.896;2023-08-21T05:34:28;9.07;;;8.37;;
1935;SDS011;969;49.892;10.896;2023-08-21T05:36:54;8.83;;;8.07;;
1935;SDS011;969;49.892;10.896;2023-08-21T05:39:20;8.90;;;8.20;;
1935;SDS011;969;49.892;10.896;2023-08-21T05:41:45;8.13;;;7.43;;
1935;SDS011;969;49.892;10.896;2023-08-21T05:44:11;8.17;;;7.47;;
1935;SDS011;969;49.892;10.896;2023-08-21T05:46:37;8.57;;;7.77;;
1935;SDS011;969;49.892;10.896;2023-08-21T05:49:03;8.27;;;7.47;;
1935;SDS011;969;49.892;10.896;2023-08-21T05:51:28;9.07;;;8.30;;
1935;SDS011;969;49.892;10.896;2023-08-21T05:53:54;8.03;;;7.43;;
1935;SDS011;969;49.892;10.896;2023-08-21T05:56:20;7.27;;;6.67;;
1935;SDS011;969;49.892;10.896;2023-08-21T05:58:46;7.30;;;6.70;;
1935;SDS011;969;49.892;10.896;2023-08-21T06:01:12;8.30;;;7.50;;
1935;SDS011;969;49.892;10.896;2023-08-21T06:03:38;7.93;;;7.30;;
1935;SDS011;969;49.892;10.896;2023-08-21T06:06:03;7.57;;;6.87;;
1935;SDS011;969;49.892;10.896;2023-08-21T06:08:30;9.10;;;8.40;;
1935;SDS011;969;49.892;10.896;2023-08-21T06:10:55;7.60;;;7.00;;
1935;SDS011;969;49.892;10.896;2023-08-21T06:13:21;8.03;;;7.40;;
1935;SDS011;969;49.892;10.896;2023-08-21T06:15:47;8.57;;;7.87;;
1935;SDS011;969;49.892;10.896;2023-08-21T06:18:12;8.77;;;8.07;;
1935;SDS011;969;49.892;10.896;2023-08-21T06:20:41;7.83;;;7.17;;
1935;SDS011;969;49.892;10.896;2023-08-21T06:23:07;8.10;;;7.40;;
1935;SDS011;969;49.892;10.896;2023-08-21T06:25:33;7.80;;;7.10;;
1935;SDS011;969;49.892;10.896;2023-08-21T06:27:58;7.97;;;7.27;;
1935;SDS011;969;49.892;10.896;2023-08-21T06:30:24;7.87;;;7.20;;
1935;SDS011;969;49.892;10.896;2023-08-21T06:32:51;8.40;;;7.60;;
1935;SDS011;969;49.892;10.896;2023-08-21T06:35:16;7.10;;;6.50;;
1935;SDS011;969;49.892;10.896;2023-08-21T06:37:42;8.03;;;7.43;;
1935;SDS011;969;49.892;10.896;2023-08-21T06:40:08;8.27;;;7.50;;
1935;SDS011;969;49.892;10.896;2023-08-21T06:42:43;9.07;;;8.27;;
1935;SDS011;969;49.892;10.896;2023-08-21T06:45:08;8.50;;;7.80;;
1935;SDS011;969;49.892;10.896;2023-08-21T06:47:34;8.33;;;7.63;;
1935;SDS011;969;49.892;10.896;2023-08-21T06:50:00;7.47;;;6.87;;
1935;SDS011;969;49.892;10.896;2023-08-21T06:52:26;8.40;;;7.70;;
1935;SDS011;969;49.892;10.896;2023-08-21T06:54:51;8.30;;;7.60;;
1935;SDS011;969;49.892;10.896;2023-08-21T06:57:17;9.17;;;8.47;;
1935;SDS011;969;49.892;10.896;2023-08-21T06:59:43;8.67;;;7.97;;
1935;SDS011;969;49.892;10.896;2023-08-21T07:02:10;7.67;;;6.97;;
1935;SDS011;969;49.892;10.896;2023-08-21T07:04:35;8.53;;;7.70;;
1935;SDS011;969;49.892;10.896;2023-08-21T07:07:01;9.20;;;8.50;;
1935;SDS011;969;49.892;10.896;2023-08-21T07:09:27;9.00;;;8.20;;
1935;SDS011;969;49.892;10.896;2023-08-21T07:11:52;8.03;;;7.33;;
1935;SDS011;969;49.892;10.896;2023-08-21T07:14:18;9.10;;;8.40;;
1935;SDS011;969;49.892;10.896;2023-08-21T07:16:44;8.40;;;7.70;;
1935;SDS011;969;49.892;10.896;2023-08-21T07:19:10;9.63;;;8.83;;
1935;SDS011;969;49.892;10.896;2023-08-21T07:21:35;9.80;;;8.90;;
1935;SDS011;969;49.892;10.896;2023-08-21T07:24:03;10.00;;;9.10;;
1935;SDS011;969;49.892;10.896;2023-08-21T07:26:29;8.90;;;8.20;;
1935;SDS011;969;49.892;10.896;2023-08-21T07:28:54;10.27;;;9.20;;
1935;SDS011;969;49.892;10.896;2023-08-21T07:31:20;8.93;;;8.13;;
1935;SDS011;969;49.892;10.896;2023-08-21T07:33:46;9.93;;;9.13;;
1935;SDS011;969;49.892;10.896;2023-08-21T07:36:11;9.30;;;8.60;;
1935;SDS011;969;49.892;10.896;2023-08-21T07:38:42;10.20;;;9.40;;
1935;SDS011;969;49.892;10.896;2023-08-21T07:41:08;10.47;;;9.30;;
1935;SDS011;969;49.892;10.896;2023-08-21T07:43:35;10.70;;;9.80;;
1935;SDS011;969;49.892;10.896;2023-08-21T07:46:05;10.03;;;9.23;;
1935;SDS011;969;49.892;10.896;2023-08-21T07:48:32;10.73;;;9.83;;
1935;SDS011;969;49.892;10.896;2023-08-21T07:50:58;9.73;;;8.83;;
1935;SDS011;969;49.892;10.896;2023-08-21T07:53:25;11.03;;;10.07;;
1935;SDS011;969;49.892;10.896;2023-08-21T07:55:51;11.87;;;10.87;;
1935;SDS011;969;49.892;10.896;2023-08-21T07:58:17;10.60;;;9.60;;
1935;SDS011;969;49.892;10.896;2023-08-21T08:00:43;11.20;;;10.10;;
1935;SDS011;969;49.892;10.896;2023-08-21T08:03:13;11.77;;;10.73;;
1935;SDS011;969;49.892;10.896;2023-08-21T08:05:39;12.03;;;10.93;;
1935;SDS011;969;49.892;10.896;2023-08-21T08:08:06;10.57;;;9.70;;
1935;SDS011;969;49.892;10.896;2023-08-21T08:10:32;12.03;;;11.00;;
1935;SDS011;969;49.892;10.896;2023-08-21T08:12:58;11.80;;;10.80;;
1935;SDS011;969;49.892;10.896;2023-08-21T08:15:23;11.27;;;10.37;;
1935;SDS011;969;49.892;10.896;2023-08-21T08:17:49;11.17;;;10.30;;
1935;SDS011;969;49.892;10.896;2023-08-21T08:20:18;12.17;;;11.07;;
1935;SDS011;969;49.892;10.896;2023-08-21T08:22:46;12.00;;;11.00;;
1935;SDS011;969;49.892;10.896;2023-08-21T08:25:12;12.10;;;11.00;;
1935;SDS011;969;49.892;10.896;2023-08-21T08:27:38;12.10;;;10.90;;
1935;SDS011;969;49.892;10.896;2023-08-21T08:30:04;12.43;;;11.23;;
1935;SDS011;969;49.892;10.896;2023-08-21T08:32:30;12.80;;;11.70;;
1935;SDS011;969;49.892;10.896;2023-08-21T08:34:56;12.20;;;11.20;;
1935;SDS011;969;49.892;10.896;2023-08-21T08:37:22;12.17;;;11.07;;
1935;SDS011;969;49.892;10.896;2023-08-21T08:39:48;13.43;;;12.23;;
1935;SDS011;969;49.892;10.896;2023-08-21T08:42:14;13.40;;;12.20;;
1935;SDS011;969;49.892;10.896;2023-08-21T08:44:40;12.70;;;11.60;;
1935;SDS011;969;49.892;10.896;2023-08-21T08:47:07;12.10;;;11.10;;
1935;SDS011;969;49.892;10.896;2023-08-21T08:49:39;12.40;;;11.30;;
1935;SDS011;969;49.892;10.896;2023-08-21T08:52:05;13.13;;;11.83;;
1935;SDS011;969;49.892;10.896;2023-08-21T08:54:31;11.20;;;10.33;;
1935;SDS011;969;49.892;10.896;2023-08-21T08:56:58;12.30;;;11.30;;
1935;SDS011;969;49.892;10.896;2023-08-21T08:59:24;11.47;;;10.50;;
1935;SDS011;969;49.892;10.896;2023-08-21T09:01:49;13.10;;;12.00;;
1935;SDS011;969;49.892;10.896;2023-08-21T09:04:15;11.70;;;10.80;;
1935;SDS011;969;49.892;10.896;2023-08-21T09:06:41;11.83;;;10.83;;
1935;SDS011;969;49.892;10.896;2023-08-21T09:09:07;12.50;;;11.50;;
1935;SDS011;969;49.892;10.896;2023-08-21T09:11:33;12.63;;;11.53;;
1935;SDS011;969;49.892;10.896;2023-08-21T09:13:59;12.77;;;11.57;;
1935;SDS011;969;49.892;10.896;2023-08-21T09:16:25;12.10;;;11.00;;
1935;SDS011;969;49.892;10.896;2023-08-21T09:18:54;12.70;;;11.60;;
1935;SDS011;969;49.892;10.896;2023-08-21T09:21:24;12.77;;;11.60;;
1935;SDS011;969;49.892;10.896;2023-08-21T09:23:59;12.67;;;11.60;;
1935;SDS011;969;49.892;10.896;2023-08-21T09:26:29;11.80;;;10.80;;
1935;SDS011;969;49.892;10.896;2023-08-21T09:28:57;12.47;;;11.37;;
1935;SDS011;969;49.892;10.896;2023-08-21T09:31:29;12.33;;;11.33;;
1935;SDS011;969;49.892;10.896;2023-08-21T09:33:58;12.03;;;11.00;;
1935;SDS011;969;49.892;10.896;2023-08-21T09:36:26;12.27;;;11.17;;
1935;SDS011;969;49.892;10.896;2023-08-21T09:38:52;12.70;;;11.50;;
1935;SDS011;969;49.892;10.896;2023-08-21T09:41:20;11.33;;;10.37;;
1935;SDS011;969;49.892;10.896;2023-08-21T09:43:47;12.47;;;11.43;;
1935;SDS011;969;49.892;10.896;2023-08-21T09:46:17;13.13;;;11.80;;
1935;SDS011;969;49.892;10.896;2023-08-21T09:48:49;12.40;;;11.30;;
1935;SDS011;969;49.892;10.896;2023-08-21T09:51:18;11.40;;;10.50;;
1935;SDS011;969;49.892;10.896;2023-08-21T09:53:44;11.77;;;10.57;;
1935;SDS011;969;49.892;10.896;2023-08-21T09:56:09;12.37;;;11.33;;
1935;SDS011;969;49.892;10.896;2023-08-21T09:58:36;12.03;;;10.93;;
1935;SDS011;969;49.892;10.896;2023-08-21T10:01:04;11.53;;;10.53;;
1935;SDS011;969;49.892;10.896;2023-08-21T10:03:39;11.90;;;10.90;;
1935;SDS011;969;49.892;10.896;2023-08-21T10:06:06;13.70;;;11.37;;
1935;SDS011;969;49.892;10.896;2023-08-21T10:08:36;11.07;;;10.00;;
1935;SDS011;969;49.892;10.896;2023-08-21T10:11:04;12.97;;;11.83;;
1935;SDS011;969;49.892;10.896;2023-08-21T10:13:32;10.43;;;9.53;;
1935;SDS011;969;49.892;10.896;2023-08-21T10:15:58;10.90;;;9.90;;
1935;SDS011;969;49.892;10.896;2023-08-21T10:18:29;11.10;;;10.10;;
1935;SDS011;969;49.892;10.896;2023-08-21T10:21:10;12.70;;;9.87;;
1935;SDS011;969;49.892;10.896;2023-08-21T10:23:36;11.53;;;10.57;;
1935;SDS011;969;49.892;10.896;2023-08-21T10:26:05;11.47;;;10.47;;
1935;SDS011;969;49.892;10.896;2023-08-21T10:28:42;10.77;;;9.93;;
1935;SDS011;969;49.892;10.896;2023-08-21T10:31:39;10.23;;;9.33;;
1935;SDS011;969;49.892;10.896;2023-08-21T10:34:14;11.77;;;10.60;;
1935;SDS011;969;49.892;10.896;2023-08-21T10:39:15;11.23;;;10.33;;
1935;SDS011;969;49.892;10.896;2023-08-21T10:45:05;11.17;;;10.17;;
1935;SDS011;969;49.892;10.896;2023-08-21T10:47:14;10.00;;;9.17;;
1935;SDS011;969;49.892;10.896;2023-08-21T10:49:49;10.40;;;9.40;;
1935;SDS011;969;49.892;10.896;2023-08-21T10:54:57;10.80;;;9.90;;
1935;SDS011;969;49.892;10.896;2023-08-21T10:57:24;10.90;;;9.97;;
1935;SDS011;969;49.892;10.896;2023-08-21T10:59:53;9.20;;;8.43;;
1935;SDS011;969;49.892;10.896;2023-08-21T11:02:22;10.77;;;9.87;;
1935;SDS011;969;49.892;10.896;2023-08-21T11:04:49;11.13;;;9.87;;
1935;SDS011;969;49.892;10.896;2023-08-21T11:07:15;9.97;;;9.17;;
1935;SDS011;969;49.892;10.896;2023-08-21T11:09:42;9.93;;;9.03;;
1935;SDS011;969;49.892;10.896;2023-08-21T11:12:08;10.27;;;9.47;;
1935;SDS011;969;49.892;10.896;2023-08-21T11:14:39;9.80;;;9.00;;
1935;SDS011;969;49.892;10.896;2023-08-21T11:17:05;10.10;;;9.20;;
1935;SDS011;969;49.892;10.896;2023-08-21T11:19:32;9.83;;;8.93;;
1935;SDS011;969;49.892;10.896;2023-08-21T11:22:02;9.30;;;8.50;;
1935;SDS011;969;49.892;10.896;2023-08-21T11:24:40;9.40;;;8.50;;
1935;SDS011;969;49.892;10.896;2023-08-21T11:27:08;9.53;;;8.53;;
1935;SDS011;969;49.892;10.896;2023-08-21T11:29:36;9.20;;;8.33;;
1935;SDS011;969;49.892;10.896;2023-08-21T11:32:09;9.40;;;8.50;;
1935;SDS011;969;49.892;10.896;2023-08-21T11:34:42;9.90;;;9.03;;
1935;SDS011;969;49.892;10.896;2023-08-21T11:37:11;9.80;;;8.97;;
1935;SDS011;969;49.892;10.896;2023-08-21T11:39:44;9.80;;;8.97;;
1935;SDS011;969;49.892;10.896;2023-08-21T11:42:13;9.90;;;9.00;;
1935;SDS011;969;49.892;10.896;2023-08-21T11:44:43;9.00;;;8.20;;
1935;SDS011;969;49.892;10.896;2023-08-21T11:47:12;9.33;;;8.53;;
1935;SDS011;969;49.892;10.896;2023-08-21T11:49:41;9.70;;;8.80;;
1935;SDS011;969;49.892;10.896;2023-08-21T11:52:08;10.40;;;9.50;;
1935;SDS011;969;49.892;10.896;2023-08-21T11:54:35;9.30;;;8.50;;
1935;SDS011;969;49.892;10.896;2023-08-21T11:57:06;10.73;;;9.83;;
1935;SDS011;969;49.892;10.896;2023-08-21T11:59:33;9.27;;;8.47;;
1935;SDS011;969;49.892;10.896;2023-08-21T12:01:59;9.17;;;8.40;;
1935;SDS011;969;49.892;10.896;2023-08-21T12:04:24;8.83;;;8.03;;
1935;SDS011;969;49.892;10.896;2023-08-21T12:06:50;9.30;;;8.47;;
1935;SDS011;969;49.892;10.896;2023-08-21T12:09:17;8.60;;;7.90;;
1935;SDS011;969;49.892;10.896;2023-08-21T12:11:44;8.27;;;7.60;;
1935;SDS011;969;49.892;10.896;2023-08-21T12:14:10;8.87;;;8.17;;
1935;SDS011;969;49.892;10.896;2023-08-21T12:16:36;9.40;;;8.60;;
1935;SDS011;969;49.892;10.896;2023-08-21T12:19:02;8.07;;;7.37;;
1935;SDS011;969;49.892;10.896;2023-08-21T12:21:28;7.67;;;7.07;;
1935;SDS011;969;49.892;10.896;2023-08-21T12:23:53;7.73;;;7.13;;
1935;SDS011;969;49.892;10.896;2023-08-21T12:26:19;7.97;;;7.30;;
1935;SDS011;969;49.892;10.896;2023-08-21T12:28:48;8.03;;;7.43;;
1935;SDS011;969;49.892;10.896;2023-08-21T12:31:14;8.70;;;7.90;;
1935;SDS011;969;49.892;10.896;2023-08-21T12:33:40;8.30;;;7.60;;
1935;SDS011;969;49.892;10.896;2023-08-21T12:36:06;8.00;;;7.23;;
1935;SDS011;969;49.892;10.896;2023-08-21T12:38:33;7.80;;;7.00;;
1935;SDS011;969;49.892;10.896;2023-08-21T12:41:01;8.23;;;7.63;;
1935;SDS011;969;49.892;10.896;2023-08-21T12:43:27;7.60;;;6.90;;
1935;SDS011;969;49.892;10.896;2023-08-21T12:45:53;8.33;;;7.63;;
1935;SDS011;969;49.892;10.896;2023-08-21T12:48:20;8.27;;;7.57;;
1935;SDS011;969;49.892;10.896;2023-08-21T12:50:45;8.33;;;7.27;;
1935;SDS011;969;49.892;10.896;2023-08-21T12:53:11;8.27;;;7.57;;
1935;SDS011;969;49.892;10.896;2023-08-21T12:55:37;7.50;;;6.90;;
1935;SDS011;969;49.892;10.896;2023-08-21T12:58:02;7.23;;;6.63;;
1935;SDS011;969;49.892;10.896;2023-08-21T13:00:28;7.63;;;7.03;;
1935;SDS011;969;49.892;10.896;2023-08-21T13:02:54;7.37;;;6.73;;
1935;SDS011;969;49.892;10.896;2023-08-21T13:05:19;7.87;;;7.27;;
1935;SDS011;969;49.892;10.896;2023-08-21T13:07:45;6.90;;;6.40;;
1935;SDS011;969;49.892;10.896;2023-08-21T13:10:11;7.80;;;7.10;;
1935;SDS011;969;49.892;10.896;2023-08-21T13:12:36;6.60;;;6.10;;
1935;SDS011;969;49.892;10.896;2023-08-21T13:15:02;7.70;;;6.57;;
1935;SDS011;969;49.892;10.896;2023-08-21T13:17:29;7.07;;;6.47;;
1935;SDS011;969;49.892;10.896;2023-08-21T13:19:54;7.30;;;6.70;;
1935;SDS011;969;49.892;10.896;2023-08-21T13:22:20;7.00;;;6.50;;
1935;SDS011;969;49.892;10.896;2023-08-21T13:24:45;7.70;;;7.00;;
1935;SDS011;969;49.892;10.896;2023-08-21T13:27:11;9.63;;;6.97;;
1935;SDS011;969;49.892;10.896;2023-08-21T13:29:37;6.47;;;5.97;;
1935;SDS011;969;49.892;10.896;2023-08-21T13:32:03;7.17;;;6.57;;
1935;SDS011;969;49.892;10.896;2023-08-21T13:34:29;7.00;;;6.40;;
1935;SDS011;969;49.892;10.896;2023-08-21T13:36:54;7.17;;;6.57;;
1935;SDS011;969;49.892;10.896;2023-08-21T13:39:20;6.10;;;5.60;;
1935;SDS011;969;49.892;10.896;2023-08-21T13:41:47;6.87;;;6.27;;
1935;SDS011;969;49.892;10.896;2023-08-21T13:44:15;7.23;;;6.53;;
1935;SDS011;969;49.892;10.896;2023-08-21T13:46:41;6.33;;;5.83;;
1935;SDS011;969;49.892;10.896;2023-08-21T13:49:06;7.20;;;6.60;;
1935;SDS011;969;49.892;10.896;2023-08-21T13:51:32;6.10;;;5.60;;
1935;SDS011;969;49.892;10.896;2023-08-21T13:53:58;6.60;;;6.10;;
1935;SDS011;969;49.892;10.896;2023-08-21T13:56:23;7.43;;;6.73;;
1935;SDS011;969;49.892;10.896;2023-08-21T13:58:49;6.23;;;5.73;;
1935;SDS011;969;49.892;10.896;2023-08-21T14:01:15;7.27;;;6.57;;
1935;SDS011;969;49.892;10.896;2023-08-21T14:03:41;6.53;;;6.03;;
1935;SDS011;969;49.892;10.896;2023-08-21T14:06:07;7.10;;;6.50;;
1935;SDS011;969;49.892;10.896;2023-08-21T14:08:36;7.30;;;6.60;;
1935;SDS011;969;49.892;10.896;2023-08-21T14:11:02;6.47;;;5.87;;
1935;SDS011;969;49.892;10.896;2023-08-21T14:13:27;6.70;;;6.10;;
1935;SDS011;969;49.892;10.896;2023-08-21T14:15:53;6.60;;;6.10;;
1935;SDS011;969;49.892;10.896;2023-08-21T14:18:19;7.17;;;6.57;;
1935;SDS011;969;49.892;10.896;2023-08-21T14:20:45;6.67;;;6.07;;
1935;SDS011;969;49.892;10.896;2023-08-21T14:23:10;6.37;;;5.77;;
1935;SDS011;969;49.892;10.896;2023-08-21T14:25:36;6.50;;;6.00;;
1935;SDS011;969;49.892;10.896;2023-08-21T14:28:02;6.30;;;5.70;;
1935;SDS011;969;49.892;10.896;2023-08-21T14:30:28;6.07;;;5.57;;
1935;SDS011;969;49.892;10.896;2023-08-21T14:32:54;5.50;;;5.10;;
1935;SDS011;969;49.892;10.896;2023-08-21T14:35:20;5.57;;;5.07;;
1935;SDS011;969;49.892;10.896;2023-08-21T14:37:45;6.37;;;5.50;;
1935;SDS011;969;49.892;10.896;2023-08-21T14:40:11;6.40;;;5.80;;
1935;SDS011;969;49.892;10.896;2023-08-21T14:42:40;6.07;;;5.57;;
1935;SDS011;969;49.892;10.896;2023-08-21T14:45:05;5.57;;;5.07;;
1935;SDS011;969;49.892;10.896;2023-08-21T14:47:31;6.13;;;5.67;;
1935;SDS011;969;49.892;10.896;2023-08-21T14:49:57;6.60;;;6.10;;
1935;SDS011;969;49.892;10.896;2023-08-21T14:52:23;6.33;;;5.73;;
1935;SDS011;969;49.892;10.896;2023-08-21T14:54:53;6.00;;;5.50;;
1935;SDS011;969;49.892;10.896;2023-08-21T14:57:18;6.33;;;5.73;;
1935;SDS011;969;49.892;10.896;2023-08-21T14:59:44;6.40;;;5.90;;
1935;SDS011;969;49.892;10.896;2023-08-21T15:02:12;5.50;;;5.10;;
1935;SDS011;969;49.892;10.896;2023-08-21T15:04:39;6.50;;;5.90;;
1935;SDS011;969;49.892;10.896;2023-08-21T15:07:04;5.50;;;5.00;;
1935;SDS011;969;49.892;10.896;2023-08-21T15:09:30;5.67;;;5.17;;
1935;SDS011;969;49.892;10.896;2023-08-21T15:11:56;6.37;;;5.77;;
1935;SDS011;969;49.892;10.896;2023-08-21T15:14:21;5.63;;;5.13;;